Time;durP1;ratioP1;P1;durP2;ratioP2;P2;SDS_P1;SDS_P2;PMS_P1;PMS_P2;Temp;Humidity;BMP_temperature;BMP_pressure;BME280_temperature;BME280_humidity;BME280_pressure;Samples;Min_cycle;Max_cycle;Signal;HPM_P1;HPM_P2
2022/10/19 00:01:15;;;;;;;47.00;17.38;;;;;;;;;;5046466;28;20495;-68
2022/10/19 00:03:42;;;;;;;116.43;19.88;;;;;;;;;;5048160;28;20021;-68
2022/10/19 00:06:12;;;;;;;82.55;19.00;;;;;;;;;;5047310;28;20031;-68
2022/10/19 00:08:38;;;;;;;96.53;19.17;;;;;;;;;;5049145;28;20102;-68
2022/10/19 00:11:05;;;;;;;88.88;20.45;;;;;;;;;;5045680;28;20108;-68
2022/10/19 00:13:31;;;;;;;109.03;19.70;;;;;;;;;;5030007;28;20029;-69
2022/10/19 00:15:57;;;;;;;93.03;19.50;;;;;;;;;;5047052;28;20040;-68
2022/10/19 00:18:23;;;;;;;88.97;20.33;;;;;;;;;;5030713;28;20044;-69
2022/10/19 00:20:49;;;;;;;74.55;20.25;;;;;;;;;;5045895;28;20449;-69
2022/10/19 00:23:15;;;;;;;73.15;19.08;;;;;;;;;;5046253;28;20025;-67
2022/10/19 00:25:41;;;;;;;51.38;18.58;;;;;;;;;;5045226;28;20043;-71
2022/10/19 00:28:07;;;;;;;58.88;19.42;;;;;;;;;;5033871;28;20032;-68
2022/10/19 00:30:39;;;;;;;69.43;19.92;;;;;;;;;;5012834;28;20052;-68
2022/10/19 00:33:06;;;;;;;66.18;19.75;;;;;;;;;;5047338;28;20025;-68
2022/10/19 00:35:32;;;;;;;147.43;22.77;;;;;;;;;;5050665;28;20040;-67
2022/10/19 00:37:58;;;;;;;78.22;19.58;;;;;;;;;;5047207;28;20632;-68
2022/10/19 00:40:24;;;;;;;70.18;19.10;;;;;;;;;;5043644;28;20041;-68
2022/10/19 00:42:54;;;;;;;117.60;21.88;;;;;;;;;;5045205;28;20436;-68
2022/10/19 00:45:20;;;;;;;184.50;24.63;;;;;;;;;;5044252;28;20025;-68
2022/10/19 00:47:46;;;;;;;169.57;25.08;;;;;;;;;;5047487;28;20476;-68
2022/10/19 00:50:13;;;;;;;136.65;22.90;;;;;;;;;;5025667;28;20044;-68
2022/10/19 00:52:39;;;;;;;118.85;23.23;;;;;;;;;;5050671;28;20067;-68
2022/10/19 00:55:07;;;;;;;187.75;26.70;;;;;;;;;;5048113;28;20032;-68
2022/10/19 00:57:34;;;;;;;73.00;24.60;;;;;;;;;;5045294;28;20021;-68
2022/10/19 01:00:00;;;;;;;132.20;26.80;;;;;;;;;;5044526;28;20064;-68
2022/10/19 01:02:27;;;;;;;118.90;26.88;;;;;;;;;;5050223;28;20082;-69
2022/10/19 01:04:54;;;;;;;99.13;27.08;;;;;;;;;;5029160;28;20120;-68
2022/10/19 01:07:20;;;;;;;87.55;25.27;;;;;;;;;;5046419;28;20055;-68
2022/10/19 01:09:46;;;;;;;95.70;24.83;;;;;;;;;;5045387;28;20093;-68
2022/10/19 01:12:35;;;;;;;69.88;22.77;;;;;;;;;;5044543;28;20021;-68
2022/10/19 01:15:19;;;;;;;87.22;23.27;;;;;;;;;;5044633;28;20064;-68
2022/10/19 01:17:48;;;;;;;53.92;20.30;;;;;;;;;;5043304;28;20036;-67
2022/10/19 01:20:32;;;;;;;28.42;13.82;;;;;;;;;;5042466;28;20219;-68
2022/10/19 01:23:17;;;;;;;28.90;12.45;;;;;;;;;;5046218;28;20112;-68
2022/10/19 01:26:01;;;;;;;32.88;12.73;;;;;;;;;;5042329;28;20025;-68
2022/10/19 01:28:41;;;;;;;32.83;13.13;;;;;;;;;;5047510;28;20083;-68
2022/10/19 01:31:30;;;;;;;27.75;12.80;;;;;;;;;;5029828;28;20108;-68
2022/10/19 01:33:56;;;;;;;37.05;13.10;;;;;;;;;;5047855;28;20036;-69
2022/10/19 01:36:26;;;;;;;23.95;11.13;;;;;;;;;;5047348;28;20027;-69
2022/10/19 01:38:57;;;;;;;31.08;12.70;;;;;;;;;;5046698;28;20120;-68
2022/10/19 01:41:30;;;;;;;29.35;13.50;;;;;;;;;;5045433;28;20090;-68
2022/10/19 01:44:13;;;;;;;27.60;12.85;;;;;;;;;;5040740;28;20037;-68
2022/10/19 01:46:40;;;;;;;29.23;13.82;;;;;;;;;;5043502;28;20530;-68
2022/10/19 01:49:18;;;;;;;91.68;18.45;;;;;;;;;;5044621;28;20061;-68
2022/10/19 01:51:47;;;;;;;60.20;19.05;;;;;;;;;;5027470;28;20264;-68
2022/10/19 01:54:15;;;;;;;72.90;20.70;;;;;;;;;;5045812;28;20021;-68
2022/10/19 01:56:42;;;;;;;70.38;23.45;;;;;;;;;;5044546;28;20467;-68
2022/10/19 01:59:10;;;;;;;120.90;29.85;;;;;;;;;;5044640;28;20041;-68
2022/10/19 02:01:38;;;;;;;222.05;35.13;;;;;;;;;;5025453;28;20020;-69
2022/10/19 02:04:04;;;;;;;150.82;36.42;;;;;;;;;;5014651;28;20575;-68
2022/10/19 02:06:30;;;;;;;250.77;41.28;;;;;;;;;;5042409;28;20047;-69
2022/10/19 02:08:56;;;;;;;171.05;38.28;;;;;;;;;;5042281;28;20033;-68
2022/10/19 02:11:23;;;;;;;99.78;34.80;;;;;;;;;;5043774;28;20033;-70
2022/10/19 02:13:52;;;;;;;77.82;31.23;;;;;;;;;;5028621;28;20033;-68
2022/10/19 02:16:25;;;;;;;89.57;34.45;;;;;;;;;;5042770;28;20033;-69
2022/10/19 02:18:52;;;;;;;105.75;38.53;;;;;;;;;;5042744;28;20029;-70
2022/10/19 02:21:19;;;;;;;106.72;41.72;;;;;;;;;;5046631;28;20060;-68
2022/10/19 02:23:45;;;;;;;104.07;41.75;;;;;;;;;;5043645;28;20495;-68
2022/10/19 02:26:11;;;;;;;90.93;42.55;;;;;;;;;;5048214;28;20533;-68
2022/10/19 02:28:37;;;;;;;170.75;50.47;;;;;;;;;;5042790;28;20488;-69
2022/10/19 02:31:04;;;;;;;145.55;50.90;;;;;;;;;;5044381;28;20480;-68
2022/10/19 02:33:30;;;;;;;124.70;49.63;;;;;;;;;;5045885;28;20032;-69
2022/10/19 02:35:57;;;;;;;96.50;45.80;;;;;;;;;;5045584;28;20107;-68
2022/10/19 02:38:23;;;;;;;82.78;42.85;;;;;;;;;;5045341;28;20039;-68
2022/10/19 02:41:10;;;;;;;88.85;44.38;;;;;;;;;;5044461;28;20052;-69
2022/10/19 02:43:37;;;;;;;59.75;35.70;;;;;;;;;;4992421;28;20037;-68
2022/10/19 02:46:06;;;;;;;104.50;39.63;;;;;;;;;;5046329;28;20052;-68
2022/10/19 02:48:33;;;;;;;176.80;43.42;;;;;;;;;;5045304;28;20017;-68
2022/10/19 02:50:59;;;;;;;99.25;36.42;;;;;;;;;;5044820;28;20557;-68
2022/10/19 02:53:25;;;;;;;116.43;36.78;;;;;;;;;;5024693;28;20030;-68
2022/10/19 02:55:51;;;;;;;113.20;35.67;;;;;;;;;;5044575;28;20068;-68
2022/10/19 02:58:17;;;;;;;192.55;36.10;;;;;;;;;;5045469;28;20036;-69
2022/10/19 03:00:43;;;;;;;174.18;33.47;;;;;;;;;;5044962;28;20131;-68
2022/10/19 03:03:09;;;;;;;110.85;33.40;;;;;;;;;;5047087;28;20037;-68
2022/10/19 03:05:35;;;;;;;136.13;32.05;;;;;;;;;;5027444;28;20029;-68
2022/10/19 03:08:01;;;;;;;106.45;33.58;;;;;;;;;;5045244;28;20033;-68
2022/10/19 03:10:27;;;;;;;175.73;34.75;;;;;;;;;;5047091;28;20071;-68
2022/10/19 03:12:53;;;;;;;87.50;32.78;;;;;;;;;;5027334;28;20484;-68
2022/10/19 03:15:22;;;;;;;290.90;41.00;;;;;;;;;;5046068;28;20040;-68
2022/10/19 03:17:51;;;;;;;263.95;41.13;;;;;;;;;;5049528;28;20436;-68
2022/10/19 03:20:17;;;;;;;217.85;39.42;;;;;;;;;;5050468;28;20035;-68
2022/10/19 03:22:43;;;;;;;220.98;40.03;;;;;;;;;;5034992;28;20040;-68
2022/10/19 03:25:09;;;;;;;249.93;43.65;;;;;;;;;;5048736;28;20033;-69
2022/10/19 03:27:35;;;;;;;193.27;39.83;;;;;;;;;;5050038;28;20037;-68
2022/10/19 03:30:01;;;;;;;177.35;40.80;;;;;;;;;;5047178;28;20475;-68
2022/10/19 03:32:27;;;;;;;143.13;39.72;;;;;;;;;;5037404;28;20040;-68
2022/10/19 03:34:53;;;;;;;110.35;37.42;;;;;;;;;;5013286;28;20033;-69
2022/10/19 03:37:19;;;;;;;207.85;43.35;;;;;;;;;;5049038;28;20029;-69
2022/10/19 03:39:45;;;;;;;95.45;35.63;;;;;;;;;;5059162;28;20056;-69
2022/10/19 03:42:11;;;;;;;128.85;38.60;;;;;;;;;;5068841;28;20552;-68
2022/10/19 03:44:37;;;;;;;186.00;41.95;;;;;;;;;;5050210;28;20036;-69
2022/10/19 03:47:03;;;;;;;205.43;42.05;;;;;;;;;;5068543;28;20043;-69
2022/10/19 03:49:29;;;;;;;241.05;44.45;;;;;;;;;;5068528;28;20040;-69
2022/10/19 03:51:55;;;;;;;181.13;42.75;;;;;;;;;;5068503;28;20479;-69
2022/10/19 03:54:21;;;;;;;141.57;39.15;;;;;;;;;;5064433;28;20020;-69
2022/10/19 03:56:47;;;;;;;197.60;41.90;;;;;;;;;;5052767;28;20509;-69
2022/10/19 03:59:14;;;;;;;254.43;43.55;;;;;;;;;;5051357;28;20070;-69
2022/10/19 04:01:41;;;;;;;301.02;44.10;;;;;;;;;;5050456;28;20036;-69
2022/10/19 04:04:12;;;;;;;348.73;46.67;;;;;;;;;;5067362;28;20081;-70
2022/10/19 04:06:42;;;;;;;461.92;52.05;;;;;;;;;;5070117;28;20220;-69
2022/10/19 04:09:10;;;;;;;401.10;48.33;;;;;;;;;;5072243;28;20028;-69
2022/10/19 04:11:37;;;;;;;403.92;49.38;;;;;;;;;;5070598;28;20165;-69
2022/10/19 04:14:03;;;;;;;374.75;51.33;;;;;;;;;;5048899;28;20033;-69
2022/10/19 04:16:30;;;;;;;400.48;48.97;;;;;;;;;;5069100;28;20040;-70
2022/10/19 04:18:56;;;;;;;321.15;46.75;;;;;;;;;;5048595;28;20541;-69
2022/10/19 04:21:23;;;;;;;234.52;45.05;;;;;;;;;;5065951;28;20036;-69
2022/10/19 04:23:50;;;;;;;169.15;42.85;;;;;;;;;;5067703;28;20025;-70
2022/10/19 04:26:16;;;;;;;148.30;41.70;;;;;;;;;;5070574;28;20032;-69
2022/10/19 04:28:42;;;;;;;104.57;38.22;;;;;;;;;;5070571;28;20035;-69
2022/10/19 04:31:10;;;;;;;189.68;40.53;;;;;;;;;;5067134;28;20501;-69
2022/10/19 04:33:36;;;;;;;127.03;38.40;;;;;;;;;;5067461;28;20021;-69
2022/10/19 04:36:03;;;;;;;306.23;45.30;;;;;;;;;;5070291;28;20394;-70
2022/10/19 04:38:29;;;;;;;191.93;43.28;;;;;;;;;;5067562;28;20636;-70
2022/10/19 04:40:55;;;;;;;159.50;42.15;;;;;;;;;;5065012;28;20036;-69
2022/10/19 04:43:22;;;;;;;102.10;39.65;;;;;;;;;;5066699;28;20033;-69
2022/10/19 04:45:48;;;;;;;93.38;38.63;;;;;;;;;;5067428;28;20145;-69
2022/10/19 04:48:14;;;;;;;81.10;37.55;;;;;;;;;;5080938;28;20033;-69
2022/10/19 04:50:40;;;;;;;92.47;40.15;;;;;;;;;;5064198;28;20419;-69
2022/10/19 04:53:06;;;;;;;77.75;37.20;;;;;;;;;;5069778;28;20016;-69
2022/10/19 04:55:32;;;;;;;81.38;38.83;;;;;;;;;;5067528;28;20492;-70
2022/10/19 04:57:58;;;;;;;89.32;39.25;;;;;;;;;;5064787;28;20161;-70
2022/10/19 05:00:24;;;;;;;90.88;39.72;;;;;;;;;;5065593;28;20507;-70
2022/10/19 05:02:50;;;;;;;96.35;39.10;;;;;;;;;;5084448;28;20112;-70
2022/10/19 05:05:16;;;;;;;92.75;40.28;;;;;;;;;;5067401;28;20040;-70
2022/10/19 05:07:42;;;;;;;104.97;40.47;;;;;;;;;;5065967;28;20021;-70
2022/10/19 05:10:11;;;;;;;86.20;39.13;;;;;;;;;;5063879;28;20032;-70
2022/10/19 05:12:37;;;;;;;90.80;38.53;;;;;;;;;;5065112;28;20071;-70
2022/10/19 05:15:03;;;;;;;85.47;36.97;;;;;;;;;;5071009;28;20029;-70
2022/10/19 05:17:30;;;;;;;88.00;36.67;;;;;;;;;;5068020;28;20475;-70
2022/10/19 05:19:56;;;;;;;88.10;38.55;;;;;;;;;;5070068;28;20024;-71
2022/10/19 05:22:23;;;;;;;79.80;33.50;;;;;;;;;;5071037;28;20488;-68
2022/10/19 05:24:49;;;;;;;87.70;36.53;;;;;;;;;;5069731;28;20039;-69
2022/10/19 05:27:15;;;;;;;84.32;38.55;;;;;;;;;;5070882;28;20036;-68
2022/10/19 05:29:41;;;;;;;88.75;38.78;;;;;;;;;;5079245;28;20032;-71
2022/10/19 05:32:07;;;;;;;72.07;37.72;;;;;;;;;;5075034;28;20035;-71
2022/10/19 05:34:33;;;;;;;82.20;37.50;;;;;;;;;;5073596;28;20020;-69
2022/10/19 05:36:59;;;;;;;79.65;36.47;;;;;;;;;;5068682;28;20443;-68
2022/10/19 05:39:25;;;;;;;80.88;36.70;;;;;;;;;;5062047;28;20048;-71
2022/10/19 05:41:51;;;;;;;75.88;35.38;;;;;;;;;;5069143;28;20028;-70
2022/10/19 05:44:19;;;;;;;91.35;34.17;;;;;;;;;;5067023;28;20032;-70
2022/10/19 05:46:45;;;;;;;70.00;30.88;;;;;;;;;;5066438;28;20024;-70
2022/10/19 05:49:12;;;;;;;69.72;31.42;;;;;;;;;;5066805;28;20445;-70
2022/10/19 05:51:38;;;;;;;71.90;30.67;;;;;;;;;;5067557;28;20051;-70
2022/10/19 05:54:05;;;;;;;67.72;30.92;;;;;;;;;;5069188;28;20036;-70
2022/10/19 05:56:31;;;;;;;73.03;33.00;;;;;;;;;;5068776;28;20021;-70
2022/10/19 05:58:58;;;;;;;81.05;35.38;;;;;;;;;;5068829;28;20479;-70
2022/10/19 06:01:25;;;;;;;90.38;36.05;;;;;;;;;;5068421;28;20025;-70
2022/10/19 06:03:51;;;;;;;76.05;36.95;;;;;;;;;;5069343;28;20463;-70
2022/10/19 06:06:18;;;;;;;85.80;37.08;;;;;;;;;;5070472;28;20039;-70
2022/10/19 06:08:44;;;;;;;89.65;38.25;;;;;;;;;;5082890;28;20039;-70
2022/10/19 06:11:11;;;;;;;94.28;37.28;;;;;;;;;;5067408;28;20028;-70
2022/10/19 06:13:38;;;;;;;74.60;36.15;;;;;;;;;;5061925;28;20024;-70
2022/10/19 06:16:05;;;;;;;85.85;36.20;;;;;;;;;;5067203;28;20082;-70
2022/10/19 06:18:31;;;;;;;80.25;34.55;;;;;;;;;;5065580;28;20193;-70
2022/10/19 06:21:01;;;;;;;78.60;35.78;;;;;;;;;;5066984;28;20134;-70
2022/10/19 06:23:27;;;;;;;83.57;34.25;;;;;;;;;;5068988;28;20028;-70
2022/10/19 06:25:53;;;;;;;80.45;35.85;;;;;;;;;;5073211;28;20107;-70
2022/10/19 06:28:19;;;;;;;75.65;34.13;;;;;;;;;;5067470;28;20024;-71
2022/10/19 06:30:45;;;;;;;75.55;34.85;;;;;;;;;;5064671;28;20071;-71
2022/10/19 06:33:11;;;;;;;83.28;35.60;;;;;;;;;;5066778;28;20086;-71
2022/10/19 06:35:37;;;;;;;80.00;34.17;;;;;;;;;;5066586;28;20115;-70
2022/10/19 06:38:03;;;;;;;80.13;35.42;;;;;;;;;;5046610;28;20032;-70
2022/10/19 06:40:29;;;;;;;78.03;33.97;;;;;;;;;;5046990;28;21357;-71
2022/10/19 06:42:56;;;;;;;86.82;35.25;;;;;;;;;;5043325;28;20398;-71
2022/10/19 06:45:22;;;;;;;78.90;34.75;;;;;;;;;;5031037;28;20021;-71
2022/10/19 06:47:48;;;;;;;80.90;36.40;;;;;;;;;;5048429;28;20499;-70
2022/10/19 06:50:14;;;;;;;77.05;33.90;;;;;;;;;;5031339;28;20033;-70
2022/10/19 06:52:40;;;;;;;71.18;32.85;;;;;;;;;;5046609;28;20095;-70
2022/10/19 06:55:06;;;;;;;68.55;31.88;;;;;;;;;;5029355;28;20040;-70
2022/10/19 06:57:32;;;;;;;69.68;32.13;;;;;;;;;;5046110;28;20053;-70
2022/10/19 06:59:58;;;;;;;62.90;30.73;;;;;;;;;;5050784;28;20511;-70
2022/10/19 07:02:24;;;;;;;57.60;30.45;;;;;;;;;;5060071;28;20025;-71
2022/10/19 07:04:50;;;;;;;73.05;32.92;;;;;;;;;;5030474;28;20522;-70
2022/10/19 07:07:16;;;;;;;61.65;30.65;;;;;;;;;;5030938;28;20041;-70
2022/10/19 07:09:42;;;;;;;63.92;31.15;;;;;;;;;;5047577;28;20025;-70
2022/10/19 07:12:09;;;;;;;64.15;29.73;;;;;;;;;;5035728;28;20025;-72
2022/10/19 07:14:38;;;;;;;57.28;27.80;;;;;;;;;;5047387;28;20097;-71
2022/10/19 07:17:05;;;;;;;69.40;29.67;;;;;;;;;;5033215;28;20529;-71
2022/10/19 07:19:31;;;;;;;61.00;29.63;;;;;;;;;;5047512;28;20040;-71
2022/10/19 07:21:57;;;;;;;65.68;28.60;;;;;;;;;;5048185;28;20033;-71
2022/10/19 07:24:23;;;;;;;83.22;28.63;;;;;;;;;;5056164;28;20028;-71
2022/10/19 07:26:49;;;;;;;72.85;29.13;;;;;;;;;;5059714;28;20022;-71
2022/10/19 07:29:15;;;;;;;60.25;27.42;;;;;;;;;;5017839;28;20392;-71
2022/10/19 07:31:41;;;;;;;76.30;30.17;;;;;;;;;;5062669;28;20483;-71
2022/10/19 07:34:10;;;;;;;70.07;30.90;;;;;;;;;;5049562;28;20033;-71
2022/10/19 07:36:37;;;;;;;58.20;28.80;;;;;;;;;;5030851;28;20452;-71
2022/10/19 07:39:05;;;;;;;55.97;27.73;;;;;;;;;;5047970;28;20037;-71
2022/10/19 07:41:31;;;;;;;66.32;24.60;;;;;;;;;;5059892;28;20116;-71
2022/10/19 07:43:57;;;;;;;43.53;23.95;;;;;;;;;;5029791;28;20159;-70
2022/10/19 07:46:24;;;;;;;41.40;22.10;;;;;;;;;;5010440;28;20475;-71
2022/10/19 07:48:50;;;;;;;40.28;22.13;;;;;;;;;;5046604;28;20612;-71
2022/10/19 07:51:17;;;;;;;38.70;18.92;;;;;;;;;;5050468;28;20055;-70
2022/10/19 07:53:43;;;;;;;38.10;16.95;;;;;;;;;;5051481;28;20017;-71
2022/10/19 07:56:09;;;;;;;36.17;16.98;;;;;;;;;;5051932;28;20059;-70
2022/10/19 07:58:36;;;;;;;29.35;17.08;;;;;;;;;;5052470;28;20033;-70
2022/10/19 08:01:06;;;;;;;33.22;14.70;;;;;;;;;;5051979;28;20097;-70
2022/10/19 08:03:33;;;;;;;30.33;16.15;;;;;;;;;;5049654;28;20048;-70
2022/10/19 08:06:03;;;;;;;36.38;15.43;;;;;;;;;;5052279;28;20424;-70
2022/10/19 08:08:29;;;;;;;30.15;14.55;;;;;;;;;;5051778;28;20036;-71
2022/10/19 08:10:55;;;;;;;35.33;14.52;;;;;;;;;;5051197;28;20079;-70
2022/10/19 08:13:21;;;;;;;36.25;15.40;;;;;;;;;;5049141;28;20376;-70
2022/10/19 08:15:47;;;;;;;25.63;13.60;;;;;;;;;;5051088;28;20509;-71
2022/10/19 08:18:15;;;;;;;26.85;13.70;;;;;;;;;;5039263;28;20053;-70
2022/10/19 08:20:41;;;;;;;25.95;13.55;;;;;;;;;;5051610;28;20041;-70
2022/10/19 08:23:07;;;;;;;23.90;13.75;;;;;;;;;;5051319;28;20067;-70
2022/10/19 08:25:33;;;;;;;25.63;13.57;;;;;;;;;;5041597;28;20048;-70
2022/10/19 08:27:59;;;;;;;25.33;13.10;;;;;;;;;;5033849;28;20105;-70
2022/10/19 08:30:26;;;;;;;27.77;11.90;;;;;;;;;;5051119;28;20095;-70
2022/10/19 08:32:51;;;;;;;32.35;13.52;;;;;;;;;;5049351;28;20056;-70
2022/10/19 08:35:17;;;;;;;31.05;13.65;;;;;;;;;;5038222;28;20087;-70
2022/10/19 08:37:43;;;;;;;24.00;12.30;;;;;;;;;;5033374;28;20398;-70
2022/10/19 08:40:22;;;;;;;23.00;11.65;;;;;;;;;;5032661;28;20048;-70
2022/10/19 08:42:58;;;;;;;19.17;10.35;;;;;;;;;;5032664;28;20025;-70
2022/10/19 08:45:43;;;;;;;19.80;9.73;;;;;;;;;;5049822;28;20113;-70
2022/10/19 08:48:21;;;;;;;25.33;8.07;;;;;;;;;;5047443;28;20040;-70
2022/10/19 08:50:48;;;;;;;24.00;7.70;;;;;;;;;;5050826;28;20068;-70
2022/10/19 08:53:16;;;;;;;17.40;7.20;;;;;;;;;;5050744;28;20108;-70
2022/10/19 08:56:08;;;;;;;20.75;7.97;;;;;;;;;;5056273;28;20016;-70
2022/10/19 08:58:47;;;;;;;19.77;7.63;;;;;;;;;;5009212;28;20110;-70
2022/10/19 09:01:24;;;;;;;32.78;7.20;;;;;;;;;;5051206;28;20178;-70
2022/10/19 09:03:55;;;;;;;22.92;6.20;;;;;;;;;;5049183;28;20033;-70
2022/10/19 09:06:34;;;;;;;21.33;6.43;;;;;;;;;;5041468;28;20036;-70
2022/10/19 09:09:00;;;;;;;17.92;6.30;;;;;;;;;;5063208;28;20148;-69
2022/10/19 09:11:31;;;;;;;18.83;7.30;;;;;;;;;;5050932;28;20158;-70
2022/10/19 09:14:18;;;;;;;18.67;5.07;;;;;;;;;;5053592;28;20029;-70
2022/10/19 09:16:45;;;;;;;13.93;4.90;;;;;;;;;;5037311;28;20033;-70
2022/10/19 09:19:21;;;;;;;15.05;4.55;;;;;;;;;;5032896;28;20032;-69
2022/10/19 09:21:57;;;;;;;19.00;4.82;;;;;;;;;;5040260;28;20467;-72
2022/10/19 09:24:27;;;;;;;13.65;4.30;;;;;;;;;;5049730;28;20079;-70
2022/10/19 09:26:55;;;;;;;16.98;4.95;;;;;;;;;;5050730;28;20070;-69
2022/10/19 09:29:33;;;;;;;11.93;4.13;;;;;;;;;;5049821;28;20507;-69
2022/10/19 09:32:00;;;;;;;15.45;4.63;;;;;;;;;;5050315;28;20137;-70
2022/10/19 09:34:31;;;;;;;14.13;3.58;;;;;;;;;;5059069;28;20089;-69
2022/10/19 09:36:58;;;;;;;19.20;4.90;;;;;;;;;;5050158;28;20135;-69
2022/10/19 09:39:25;;;;;;;14.20;4.35;;;;;;;;;;5037560;28;20040;-69
2022/10/19 09:41:53;;;;;;;11.55;4.15;;;;;;;;;;5069278;28;20514;-69
2022/10/19 09:44:20;;;;;;;12.65;4.57;;;;;;;;;;5069044;28;20036;-69
2022/10/19 09:46:51;;;;;;;11.23;4.30;;;;;;;;;;5068766;28;20170;-69
2022/10/19 09:49:17;;;;;;;;;;;;;;;;;;5069628;28;20119;-69
2022/10/19 09:51:49;;;;;;;12.90;4.15;;;;;;;;;;5069624;28;20405;-69
2022/10/19 09:54:22;;;;;;;10.88;3.50;;;;;;;;;;5069107;28;20127;-69
2022/10/19 09:56:52;;;;;;;10.73;2.92;;;;;;;;;;5049650;28;20037;-69
2022/10/19 09:59:22;;;;;;;7.45;3.28;;;;;;;;;;5068379;28;20033;-69
2022/10/19 10:01:59;;;;;;;15.77;3.47;;;;;;;;;;5068246;28;20090;-69
2022/10/19 10:04:25;;;;;;;13.07;3.00;;;;;;;;;;5075728;28;20498;-69
2022/10/19 10:06:54;;;;;;;11.68;3.30;;;;;;;;;;5070914;28;20031;-69
2022/10/19 10:09:25;;;;;;;14.85;3.25;;;;;;;;;;5065907;28;20021;-69
2022/10/19 10:11:53;;;;;;;10.00;2.72;;;;;;;;;;5068778;28;20017;-68
2022/10/19 10:14:40;;;;;;;13.02;3.33;;;;;;;;;;5077875;28;20028;-69
2022/10/19 10:17:20;;;;;;;12.63;2.70;;;;;;;;;;5086250;28;20090;-68
2022/10/19 10:19:51;;;;;;;11.77;3.50;;;;;;;;;;5067984;28;20032;-69
2022/10/19 10:22:43;;;;;;;14.98;4.25;;;;;;;;;;5072359;28;20048;-69
2022/10/19 10:25:16;;;;;;;8.57;3.00;;;;;;;;;;5068219;28;20037;-69
2022/10/19 10:27:43;;;;;;;8.13;2.47;;;;;;;;;;5069186;28;20033;-69
2022/10/19 10:30:15;;;;;;;6.55;2.90;;;;;;;;;;5073119;28;20032;-69
2022/10/19 10:32:49;;;;;;;13.32;3.10;;;;;;;;;;5083623;28;20032;-69
2022/10/19 10:35:21;;;;;;;10.15;3.17;;;;;;;;;;5067861;28;20024;-69
2022/10/19 10:37:48;;;;;;;13.13;3.70;;;;;;;;;;5067115;28;20036;-68
2022/10/19 10:40:22;;;;;;;13.90;2.75;;;;;;;;;;5060444;28;20044;-69
2022/10/19 10:42:48;;;;;;;8.20;2.30;;;;;;;;;;5025061;28;20041;-68
2022/10/19 10:45:17;;;;;;;9.45;2.20;;;;;;;;;;5050174;28;20037;-68
2022/10/19 10:47:47;;;;;;;8.15;2.20;;;;;;;;;;5030667;28;20029;-68
2022/10/19 10:50:33;;;;;;;6.32;2.03;;;;;;;;;;5030369;28;20536;-68
2022/10/19 10:53:19;;;;;;;7.18;1.80;;;;;;;;;;5048182;28;20032;-69
2022/10/19 10:55:54;;;;;;;7.03;1.98;;;;;;;;;;5042273;28;20025;-69
2022/10/19 10:58:42;;;;;;;6.63;2.40;;;;;;;;;;5030795;28;20032;-68
2022/10/19 11:01:15;;;;;;;7.65;1.95;;;;;;;;;;5058085;28;20024;-68
2022/10/19 11:03:45;;;;;;;5.43;1.98;;;;;;;;;;5035292;28;20024;-69
2022/10/19 11:06:11;;;;;;;10.32;2.15;;;;;;;;;;5047046;28;20036;-69
2022/10/19 11:08:37;;;;;;;7.43;2.35;;;;;;;;;;5029437;28;20036;-68
2022/10/19 11:11:03;;;;;;;7.88;2.22;;;;;;;;;;5035635;28;20086;-69
2022/10/19 11:13:29;;;;;;;8.00;2.20;;;;;;;;;;5048366;28;20122;-68
2022/10/19 11:15:59;;;;;;;14.95;1.92;;;;;;;;;;5048523;28;20444;-68
2022/10/19 11:18:28;;;;;;;9.73;2.25;;;;;;;;;;5047414;28;20017;-69
2022/10/19 11:20:58;;;;;;;6.82;2.25;;;;;;;;;;5051025;28;20135;-69
2022/10/19 11:23:44;;;;;;;7.20;2.17;;;;;;;;;;5034376;28;20040;-68
2022/10/19 11:26:40;;;;;;;6.97;1.98;;;;;;;;;;5037917;28;20055;-68
2022/10/19 11:29:24;;;;;;;15.75;2.30;;;;;;;;;;5043460;28;20041;-69
2022/10/19 11:31:54;;;;;;;8.15;2.25;;;;;;;;;;5033500;28;20101;-69
2022/10/19 11:34:23;;;;;;;4.53;2.05;;;;;;;;;;5051097;28;20033;-68
2022/10/19 11:36:53;;;;;;;7.95;2.10;;;;;;;;;;5051626;28;20192;-68
2022/10/19 11:39:25;;;;;;;10.75;2.35;;;;;;;;;;5039586;28;20056;-68
2022/10/19 11:41:54;;;;;;;9.27;1.88;;;;;;;;;;5070227;28;20032;-68
2022/10/19 11:44:26;;;;;;;10.00;1.60;;;;;;;;;;5075304;28;20085;-68
2022/10/19 11:46:52;;;;;;;10.73;2.63;;;;;;;;;;5070066;28;20435;-68
2022/10/19 11:49:21;;;;;;;7.03;1.65;;;;;;;;;;5071492;28;20032;-67
2022/10/19 11:51:56;;;;;;;8.32;1.63;;;;;;;;;;5070991;28;20047;-68
2022/10/19 11:54:41;;;;;;;5.28;1.70;;;;;;;;;;5070491;28;20206;-68
2022/10/19 11:57:17;;;;;;;11.68;1.77;;;;;;;;;;5071514;28;20101;-69
2022/10/19 11:59:49;;;;;;;8.93;1.92;;;;;;;;;;5071253;28;20037;-69
2022/10/19 12:02:18;;;;;;;13.23;2.10;;;;;;;;;;5071553;28;20037;-69
2022/10/19 12:05:03;;;;;;;6.25;2.20;;;;;;;;;;5069865;28;20170;-69
2022/10/19 12:07:46;;;;;;;8.15;1.90;;;;;;;;;;5071467;28;20549;-69
2022/10/19 12:10:17;;;;;;;10.30;1.77;;;;;;;;;;5066882;28;20076;-69
2022/10/19 12:12:45;;;;;;;3.90;1.45;;;;;;;;;;5058926;28;20020;-68
2022/10/19 12:15:11;;;;;;;6.18;1.75;;;;;;;;;;5084881;28;20020;-69
2022/10/19 12:17:39;;;;;;;7.55;1.58;;;;;;;;;;5071470;28;20532;-69
2022/10/19 12:20:07;;;;;;;9.43;2.00;;;;;;;;;;5070812;28;20399;-68
2022/10/19 12:22:36;;;;;;;6.75;1.50;;;;;;;;;;5071107;28;20077;-69
2022/10/19 12:25:02;;;;;;;8.80;1.55;;;;;;;;;;5071381;28;20134;-69
2022/10/19 12:27:33;;;;;;;8.95;2.30;;;;;;;;;;5073538;28;20032;-69
2022/10/19 12:30:03;;;;;;;10.50;1.73;;;;;;;;;;5070208;28;20144;-69
2022/10/19 12:32:32;;;;;;;6.50;2.00;;;;;;;;;;5072020;28;20033;-69
2022/10/19 12:35:03;;;;;;;10.43;2.17;;;;;;;;;;5071458;28;20042;-69
2022/10/19 12:37:39;;;;;;;7.75;1.75;;;;;;;;;;5068590;28;20035;-69
2022/10/19 12:40:24;;;;;;;6.95;1.98;;;;;;;;;;5058268;28;20041;-69
2022/10/19 12:43:09;;;;;;;5.80;1.67;;;;;;;;;;5053130;28;20517;-69
2022/10/19 12:45:48;;;;;;;7.05;1.75;;;;;;;;;;5051216;28;20483;-68
2022/10/19 12:48:17;;;;;;;7.45;1.98;;;;;;;;;;5051354;28;20033;-69
2022/10/19 12:50:51;;;;;;;9.90;1.83;;;;;;;;;;5050968;28;20127;-69
2022/10/19 12:53:47;;;;;;;9.52;2.03;;;;;;;;;;5050979;28;20017;-68
2022/10/19 12:56:19;;;;;;;13.85;2.00;;;;;;;;;;5033682;28;20045;-69
2022/10/19 12:58:51;;;;;;;6.65;1.75;;;;;;;;;;5037764;28;20021;-69
2022/10/19 13:01:26;;;;;;;11.52;2.22;;;;;;;;;;5050429;28;20029;-68
2022/10/19 13:04:10;;;;;;;6.38;1.70;;;;;;;;;;5060792;28;20028;-68
2022/10/19 13:07:09;;;;;;;5.63;1.65;;;;;;;;;;5050502;28;20033;-69
2022/10/19 13:09:35;;;;;;;9.70;2.00;;;;;;;;;;5006526;28;20534;-70
2022/10/19 13:12:17;;;;;;;9.15;1.95;;;;;;;;;;5046942;28;20112;-69
2022/10/19 13:14:44;;;;;;;9.55;2.60;;;;;;;;;;5048785;28;20036;-69
2022/10/19 13:17:30;;;;;;;5.70;2.00;;;;;;;;;;5042081;28;20037;-69
2022/10/19 13:20:16;;;;;;;7.38;2.35;;;;;;;;;;5035990;28;20041;-69
2022/10/19 13:22:45;;;;;;;15.13;2.60;;;;;;;;;;5009522;28;20106;-69
2022/10/19 13:25:18;;;;;;;8.02;1.92;;;;;;;;;;5050111;28;20025;-69
2022/10/19 13:27:45;;;;;;;10.43;2.40;;;;;;;;;;5060186;28;20601;-69
2022/10/19 13:30:30;;;;;;;5.53;2.10;;;;;;;;;;5048819;28;20060;-69
2022/10/19 13:32:56;;;;;;;7.57;3.35;;;;;;;;;;5030005;28;20033;-70
2022/10/19 13:35:31;;;;;;;8.88;2.67;;;;;;;;;;5039750;28;20040;-67
2022/10/19 13:38:09;;;;;;;7.93;2.85;;;;;;;;;;5053674;28;20103;-67
2022/10/19 13:40:37;;;;;;;9.43;2.72;;;;;;;;;;5064012;28;20053;-67
2022/10/19 13:43:03;;;;;;;8.60;2.75;;;;;;;;;;5048662;28;20037;-70
2022/10/19 13:45:29;;;;;;;17.48;2.80;;;;;;;;;;5048405;28;20475;-69
2022/10/19 13:48:04;;;;;;;9.50;3.13;;;;;;;;;;5055882;28;20032;-69
2022/10/19 13:50:33;;;;;;;9.90;2.80;;;;;;;;;;5015875;28;20040;-69
2022/10/19 13:53:18;;;;;;;6.68;2.50;;;;;;;;;;5049711;28;20240;-69
2022/10/19 13:55:46;;;;;;;6.20;2.60;;;;;;;;;;5049661;28;20133;-69
2022/10/19 13:58:15;;;;;;;10.05;2.95;;;;;;;;;;5061117;28;20036;-69
2022/10/19 14:01:00;;;;;;;9.82;2.60;;;;;;;;;;5062989;28;20064;-69
2022/10/19 14:03:35;;;;;;;11.77;3.00;;;;;;;;;;5031702;28;20480;-69
2022/10/19 14:06:01;;;;;;;9.70;2.70;;;;;;;;;;5030994;28;20368;-69
2022/10/19 14:08:50;;;;;;;9.63;3.20;;;;;;;;;;5048459;28;20029;-69
2022/10/19 14:11:23;;;;;;;9.43;2.42;;;;;;;;;;5001502;28;20773;-69
2022/10/19 14:14:08;;;;;;;12.88;2.63;;;;;;;;;;5049632;28;20033;-69
2022/10/19 14:16:34;;;;;;;6.55;2.25;;;;;;;;;;5048724;28;20545;-68
2022/10/19 14:19:00;;;;;;;9.88;2.70;;;;;;;;;;5031438;28;20121;-68
2022/10/19 14:21:31;;;;;;;8.15;2.30;;;;;;;;;;5061893;28;20115;-68
2022/10/19 14:23:57;;;;;;;7.82;2.35;;;;;;;;;;5057641;28;20027;-68
2022/10/19 14:26:24;;;;;;;11.07;2.45;;;;;;;;;;5052140;28;20436;-69
2022/10/19 14:28:56;;;;;;;10.45;2.20;;;;;;;;;;5049323;28;20029;-68
2022/10/19 14:31:23;;;;;;;10.13;4.05;;;;;;;;;;5048454;28;20021;-68
2022/10/19 14:33:56;;;;;;;8.80;4.45;;;;;;;;;;5031298;28;20087;-69
2022/10/19 14:36:23;;;;;;;7.97;2.42;;;;;;;;;;5049264;28;20051;-69
2022/10/19 14:38:52;;;;;;;7.30;3.40;;;;;;;;;;5047660;28;20059;-69